createdAt,value
2023-02-15T00:02:10.969Z,63.55
2023-02-15T00:04:50.335Z,63.61
2023-02-15T00:07:20.210Z,63.00
2023-02-15T00:09:48.230Z,63.39
2023-02-15T00:12:16.374Z,63.09
2023-02-15T00:14:43.508Z,63.46
2023-02-15T00:17:10.815Z,63.11
2023-02-15T00:19:37.769Z,63.17
2023-02-15T00:22:05.954Z,63.30
2023-02-15T00:24:33.333Z,63.51
2023-02-15T00:27:00.407Z,62.43
2023-02-15T00:29:27.809Z,61.92
2023-02-15T00:31:55.794Z,61.36
2023-02-15T00:34:27.495Z,61.29
2023-02-15T00:36:55.667Z,61.01
2023-02-15T00:39:23.110Z,60.93
2023-02-15T00:41:50.282Z,60.84
2023-02-15T00:44:18.692Z,59.87
2023-02-15T00:46:45.947Z,59.75
2023-02-15T00:49:13.180Z,60.12
2023-02-15T00:51:40.978Z,60.19
2023-02-15T00:54:11.752Z,60.54
2023-02-15T00:56:38.938Z,60.74
2023-02-15T00:59:06.230Z,60.53
2023-02-15T01:01:33.826Z,60.78
2023-02-15T01:04:00.982Z,61.09
2023-02-15T01:06:30.083Z,60.21
2023-02-15T01:08:57.173Z,60.29
2023-02-15T01:11:24.742Z,59.91
2023-02-15T01:13:57.405Z,59.60
2023-02-15T01:16:27.333Z,60.10
2023-02-15T01:18:55.934Z,60.11
2023-02-15T01:21:25.138Z,60.25
2023-02-15T01:23:53.161Z,59.88
2023-02-15T01:26:20.550Z,59.86
2023-02-15T01:28:48.961Z,59.75
2023-02-15T01:31:19.334Z,59.74
2023-02-15T01:33:48.449Z,59.38
2023-02-15T01:36:18.602Z,60.96
2023-02-15T01:38:46.709Z,60.40
2023-02-15T01:41:30.067Z,60.46
2023-02-15T01:44:00.777Z,60.55
2023-02-15T01:46:41.924Z,60.00
2023-02-15T01:49:16.410Z,60.83
2023-02-15T01:51:46.396Z,60.36
2023-02-15T01:54:22.493Z,60.14
2023-02-15T01:56:50.093Z,60.27
2023-02-15T01:59:22.589Z,61.11
2023-02-15T02:01:53.890Z,60.81
2023-02-15T02:04:21.060Z,60.87
2023-02-15T02:06:50.571Z,60.84
2023-02-15T02:09:17.960Z,60.88
2023-02-15T02:11:48.756Z,60.88
2023-02-15T02:14:17.795Z,60.35
2023-02-15T02:16:58.778Z,61.25
2023-02-15T02:19:41.228Z,61.95
2023-02-15T02:22:50.631Z,62.51
2023-02-15T02:25:52.200Z,63.57
2023-02-15T02:28:38.046Z,64.01
2023-02-15T02:31:27.012Z,63.62
2023-02-15T02:34:10.187Z,63.85
2023-02-15T02:36:50.888Z,64.03
2023-02-15T02:39:24.026Z,63.70
2023-02-15T02:42:06.642Z,63.99
2023-02-15T02:44:54.415Z,64.13
2023-02-15T02:47:31.306Z,64.26
2023-02-15T02:50:05.314Z,64.29
2023-02-15T02:52:45.607Z,64.46
2023-02-15T02:55:24.389Z,64.33
2023-02-15T02:58:14.988Z,64.34
2023-02-15T03:00:57.775Z,64.28
2023-02-15T03:03:35.346Z,63.92
2023-02-15T03:06:08.172Z,64.07
2023-02-15T03:08:44.207Z,64.26
2023-02-15T03:11:12.958Z,64.14
2023-02-15T03:13:41.746Z,64.15
2023-02-15T03:16:29.540Z,63.69
2023-02-15T03:19:09.832Z,63.80
2023-02-15T03:21:59.099Z,63.47
2023-02-15T03:24:36.086Z,63.32
2023-02-15T03:27:07.687Z,62.80
2023-02-15T03:29:36.501Z,63.41
2023-02-15T03:32:08.375Z,63.38
2023-02-15T03:34:35.830Z,63.50
2023-02-15T03:37:15.082Z,62.93
2023-02-15T03:40:19.698Z,63.41
2023-02-15T03:42:50.343Z,63.22
2023-02-15T03:45:24.440Z,63.43
2023-02-15T03:47:54.008Z,63.18
2023-02-15T03:50:44.699Z,63.60
2023-02-15T03:53:15.512Z,63.65
2023-02-15T03:55:42.976Z,63.78
2023-02-15T03:58:28.719Z,64.03
2023-02-15T04:01:26.103Z,64.50
2023-02-15T04:04:00.760Z,64.97
2023-02-15T04:06:28.238Z,65.90
2023-02-15T04:09:14.199Z,67.29
2023-02-15T04:11:41.484Z,67.73
2023-02-15T04:14:27.559Z,68.39
2023-02-15T04:16:54.853Z,68.11
2023-02-15T04:19:40.917Z,68.23
2023-02-15T04:22:26.924Z,66.72
2023-02-15T04:25:12.949Z,66.09
2023-02-15T04:27:52.028Z,65.58
2023-02-15T04:30:21.916Z,64.86
2023-02-15T04:32:49.324Z,64.22
2023-02-15T04:35:17.459Z,64.00
2023-02-15T04:37:45.445Z,63.78
2023-02-15T04:40:17.353Z,63.49
2023-02-15T04:42:50.131Z,63.69
2023-02-15T04:45:18.746Z,63.89
2023-02-15T04:47:46.386Z,64.03
2023-02-15T04:50:13.936Z,64.05
2023-02-15T04:52:41.483Z,64.14
2023-02-15T04:55:09.878Z,64.02
2023-02-15T04:57:37.438Z,63.87
2023-02-15T05:00:05.395Z,63.68
2023-02-15T05:02:32.632Z,64.21
2023-02-15T05:05:00.321Z,64.99
2023-02-15T05:07:27.845Z,65.08
2023-02-15T05:09:55.944Z,65.35
2023-02-15T05:12:23.560Z,65.47
2023-02-15T05:14:50.858Z,65.22
2023-02-15T05:17:18.269Z,65.94
2023-02-15T05:19:46.160Z,66.03
2023-02-15T05:22:14.205Z,65.94
2023-02-15T05:25:03.885Z,65.86
2023-02-15T05:27:51.188Z,65.84
2023-02-15T05:30:19.391Z,66.38
2023-02-15T05:32:46.867Z,66.70
2023-02-15T05:35:16.920Z,66.32
2023-02-15T05:37:45.786Z,66.29
2023-02-15T05:40:14.645Z,66.34
2023-02-15T05:42:45.410Z,66.02
2023-02-15T05:45:14.048Z,65.78
2023-02-15T05:47:41.295Z,65.58
2023-02-15T05:50:10.101Z,65.08
2023-02-15T05:52:39.035Z,65.67
2023-02-15T05:55:10.400Z,68.53
2023-02-15T05:57:38.390Z,69.72
2023-02-15T06:00:11.227Z,69.92
2023-02-15T06:02:41.770Z,70.39
2023-02-15T06:05:12.557Z,70.41
2023-02-15T06:07:40.320Z,71.27
2023-02-15T06:10:08.769Z,71.86
2023-02-15T06:12:36.468Z,72.25
2023-02-15T06:15:05.322Z,73.13
2023-02-15T06:17:33.292Z,72.65
2023-02-15T06:20:00.749Z,72.69
2023-02-15T06:22:28.896Z,72.00
2023-02-15T06:24:56.651Z,71.81
2023-02-15T06:27:24.051Z,72.54
2023-02-15T06:29:52.292Z,73.88
2023-02-15T06:32:20.647Z,73.29
2023-02-15T06:34:48.904Z,71.84
2023-02-15T06:37:16.782Z,70.26
2023-02-15T06:39:45.646Z,68.40
2023-02-15T06:42:14.503Z,66.09
2023-02-15T06:44:42.383Z,65.06
2023-02-15T06:47:10.577Z,63.08
2023-02-15T06:49:38.683Z,61.96
2023-02-15T06:52:07.039Z,59.24
2023-02-15T06:54:34.441Z,58.96
2023-02-15T06:57:02.479Z,57.13
2023-02-15T06:59:30.440Z,57.19
2023-02-15T07:01:58.044Z,56.17
2023-02-15T07:04:27.828Z,55.96
2023-02-15T07:06:56.678Z,55.65
2023-02-15T07:09:24.088Z,54.76
2023-02-15T07:12:10.466Z,54.35
2023-02-15T07:14:38.460Z,53.03
2023-02-15T07:17:11.730Z,52.80
2023-02-15T07:19:46.868Z,52.59
2023-02-15T07:22:14.426Z,51.91
2023-02-15T07:24:42.573Z,51.43
2023-02-15T07:27:11.085Z,50.72
2023-02-15T07:29:40.354Z,50.00
2023-02-15T07:32:11.551Z,49.19
2023-02-15T07:34:39.302Z,49.17
2023-02-15T07:37:06.675Z,48.64
2023-02-15T07:39:34.736Z,48.57
2023-02-15T07:42:02.500Z,48.62
2023-02-15T07:44:31.956Z,48.27
2023-02-15T07:46:59.116Z,47.73
2023-02-15T07:49:26.531Z,48.44
2023-02-15T07:51:54.314Z,48.06
2023-02-15T07:54:22.361Z,46.86
2023-02-15T07:56:49.418Z,47.17
2023-02-15T07:59:17.346Z,48.15
2023-02-15T08:01:44.998Z,47.00
2023-02-15T08:04:12.498Z,46.55
2023-02-15T08:06:40.198Z,45.16
2023-02-15T08:09:10.322Z,45.28
2023-02-15T08:11:40.899Z,42.59
2023-02-15T08:14:14.957Z,43.20
2023-02-15T08:16:53.890Z,43.88
2023-02-15T08:19:30.139Z,42.90
2023-02-15T08:22:00.856Z,42.59
2023-02-15T08:24:31.762Z,42.66
2023-02-15T08:26:59.988Z,42.59
2023-02-15T08:29:29.860Z,43.30
2023-02-15T08:32:04.035Z,42.61
2023-02-15T08:34:35.257Z,41.04
2023-02-15T08:37:03.046Z,40.83
2023-02-15T08:39:30.719Z,39.85
2023-02-15T08:41:59.332Z,40.37
2023-02-15T08:44:26.975Z,39.58
2023-02-15T08:46:56.070Z,38.90
2023-02-15T08:49:23.768Z,38.20
2023-02-15T08:51:51.917Z,37.84
2023-02-15T08:54:21.971Z,38.56
2023-02-15T08:56:50.414Z,36.09
2023-02-15T08:59:23.357Z,36.40
2023-02-15T09:01:52.735Z,36.58
2023-02-15T09:04:21.426Z,36.64
2023-02-15T09:06:54.298Z,35.61
2023-02-15T09:09:21.825Z,36.18
2023-02-15T09:11:56.804Z,35.97
2023-02-15T09:14:29.315Z,36.36
2023-02-15T09:16:58.281Z,34.92
2023-02-15T09:19:29.146Z,34.97
2023-02-15T09:22:00.152Z,34.43
2023-02-15T09:24:28.760Z,32.48
2023-02-15T09:26:59.910Z,32.66
2023-02-15T09:29:28.058Z,32.79
2023-02-15T09:31:55.541Z,32.67
2023-02-15T09:34:24.008Z,32.95
2023-02-15T09:36:52.548Z,32.69
2023-02-15T09:39:25.095Z,32.16
2023-02-15T09:42:10.888Z,31.27
2023-02-15T09:44:56.441Z,31.84
2023-02-15T09:47:57.064Z,31.86
2023-02-15T09:50:43.123Z,31.77
2023-02-15T09:53:22.331Z,31.59
2023-02-15T09:56:20.762Z,30.60
2023-02-15T09:58:56.632Z,31.11
2023-02-15T10:01:40.624Z,29.91
2023-02-15T10:05:05.299Z,29.98
2023-02-15T10:07:58.146Z,29.69
2023-02-15T10:10:46.261Z,29.99
2023-02-15T10:13:37.957Z,29.47
2023-02-15T10:16:43.840Z,28.51
2023-02-15T10:19:32.521Z,29.21
2023-02-15T10:22:23.488Z,27.96
2023-02-15T10:25:26.449Z,27.21
2023-02-15T10:27:54.788Z,26.96
2023-02-15T10:30:38.987Z,26.39
2023-02-15T10:33:24.698Z,26.98
2023-02-15T10:36:13.688Z,26.58
2023-02-15T10:39:20.045Z,26.51
2023-02-15T10:42:03.961Z,26.40
2023-02-15T10:44:53.850Z,25.60
2023-02-15T10:47:52.273Z,25.97
2023-02-15T10:50:46.440Z,26.05
2023-02-15T10:53:38.036Z,26.01
2023-02-15T10:56:17.911Z,25.37
2023-02-15T10:59:19.681Z,24.19
2023-02-15T11:02:08.976Z,24.84
2023-02-15T11:05:11.875Z,24.81
2023-02-15T11:07:46.616Z,24.59
2023-02-15T11:10:36.403Z,24.16
2023-02-15T11:13:11.182Z,24.23
2023-02-15T11:15:41.411Z,24.41
2023-02-15T11:18:32.126Z,23.87
2023-02-15T11:21:05.601Z,23.73
2023-02-15T11:23:39.378Z,24.38
2023-02-15T11:26:38.391Z,24.06
2023-02-15T11:29:17.318Z,23.91
2023-02-15T11:31:47.793Z,23.23
2023-02-15T11:34:35.503Z,22.16
2023-02-15T11:37:20.241Z,22.01
2023-02-15T11:39:52.833Z,23.11
2023-02-15T11:42:23.492Z,23.18
2023-02-15T11:45:03.820Z,22.60
2023-02-15T11:47:31.376Z,23.47
2023-02-15T11:49:59.345Z,22.67
2023-02-15T11:52:27.104Z,22.26
2023-02-15T11:54:55.132Z,22.84
2023-02-15T11:57:41.627Z,22.35
2023-02-15T12:00:27.667Z,23.62
2023-02-15T12:02:58.760Z,23.34
2023-02-15T12:05:26.971Z,23.00
2023-02-15T12:08:02.595Z,22.55
2023-02-15T12:10:40.200Z,22.78
2023-02-15T12:13:17.019Z,22.58
2023-02-15T12:15:50.154Z,21.69
2023-02-15T12:18:22.924Z,21.25
2023-02-15T12:20:50.670Z,22.23
2023-02-15T12:23:20.265Z,22.09
2023-02-15T12:25:57.429Z,21.95
2023-02-15T12:28:42.917Z,20.95
2023-02-15T12:31:37.672Z,20.92
2023-02-15T12:34:30.301Z,21.49
2023-02-15T12:37:02.171Z,21.87
2023-02-15T12:39:33.346Z,22.65
2023-02-15T12:42:16.167Z,24.07
2023-02-15T12:44:56.888Z,24.79
2023-02-15T12:47:28.864Z,25.57
2023-02-15T12:50:23.818Z,27.44
2023-02-15T12:53:06.706Z,27.59
2023-02-15T12:55:35.197Z,27.92
2023-02-15T12:58:17.328Z,27.92
2023-02-15T13:00:45.867Z,27.78
2023-02-15T13:03:22.783Z,29.71
2023-02-15T13:05:56.899Z,29.91
2023-02-15T13:08:34.724Z,30.45
2023-02-15T13:11:13.128Z,31.25
2023-02-15T13:13:59.554Z,31.07
2023-02-15T13:16:38.123Z,31.88
2023-02-15T13:19:18.556Z,31.53
2023-02-15T13:21:51.706Z,32.49
2023-02-15T13:24:31.691Z,32.48
2023-02-15T13:27:14.559Z,32.29
2023-02-15T13:29:53.171Z,32.90
2023-02-15T13:32:32.671Z,33.29
2023-02-15T13:35:06.420Z,32.86
2023-02-15T13:38:11.833Z,33.47
2023-02-15T13:41:08.086Z,33.26
2023-02-15T13:44:16.792Z,33.35
2023-02-15T13:46:57.863Z,33.75
2023-02-15T13:49:37.670Z,34.17
2023-02-15T13:52:27.976Z,34.15
2023-02-15T13:55:33.280Z,33.63
2023-02-15T13:58:03.828Z,34.16
2023-02-15T14:00:51.803Z,33.47
2023-02-15T14:03:31.250Z,33.32
2023-02-15T14:06:21.710Z,32.98
2023-02-15T14:09:10.694Z,33.32
2023-02-15T14:12:00.104Z,32.76
2023-02-15T14:14:59.812Z,33.26
2023-02-15T14:17:30.819Z,32.96
2023-02-15T14:20:01.599Z,32.90
2023-02-15T14:22:36.988Z,32.67
2023-02-15T14:25:20.563Z,32.60
2023-02-15T14:28:07.015Z,32.38
2023-02-15T14:30:44.640Z,32.64
2023-02-15T14:33:50.218Z,32.11
2023-02-15T14:36:23.588Z,31.75
2023-02-15T14:39:43.934Z,31.78
2023-02-15T14:42:43.763Z,32.44
2023-02-15T14:45:28.761Z,31.85
2023-02-15T14:48:14.688Z,32.75
2023-02-15T14:50:47.765Z,32.80
2023-02-15T14:53:34.322Z,32.68
2023-02-15T14:56:19.943Z,32.97
2023-02-15T14:58:53.614Z,34.02
2023-02-15T15:01:28.770Z,34.54
2023-02-15T15:04:01.536Z,33.75
2023-02-15T15:06:35.977Z,34.92
2023-02-15T15:09:26.930Z,35.13
2023-02-15T15:12:16.251Z,35.55
2023-02-15T15:14:46.918Z,35.67
2023-02-15T15:17:34.277Z,36.05
2023-02-15T15:20:04.203Z,37.01
2023-02-15T15:22:33.856Z,36.65
2023-02-15T15:25:10.776Z,37.20
2023-02-15T15:27:48.739Z,38.02
2023-02-15T15:30:25.284Z,38.06
2023-02-15T15:32:56.340Z,37.64
2023-02-15T15:36:16.098Z,37.71
2023-02-15T15:39:04.192Z,38.48
2023-02-15T15:41:53.388Z,39.29
2023-02-15T15:44:58.702Z,38.99
2023-02-15T15:48:06.388Z,39.96
2023-02-15T15:50:34.696Z,39.97
2023-02-15T15:53:03.686Z,40.34
2023-02-15T15:55:33.511Z,39.87
2023-02-15T15:58:08.197Z,39.87
2023-02-15T16:00:48.316Z,41.57
2023-02-15T16:03:28.960Z,41.24
2023-02-15T16:05:57.504Z,41.57
2023-02-15T16:08:29.152Z,41.89
2023-02-15T16:10:57.188Z,42.27
2023-02-15T16:13:24.964Z,41.80
2023-02-15T16:15:55.583Z,42.73
2023-02-15T16:18:26.759Z,42.31
2023-02-15T16:21:00.610Z,42.91
2023-02-15T16:23:37.150Z,42.33
2023-02-15T16:26:04.987Z,42.33
2023-02-15T16:28:32.536Z,42.18
2023-02-15T16:31:13.775Z,42.07
2023-02-15T16:33:42.777Z,42.29
2023-02-15T16:36:32.909Z,42.43
2023-02-15T16:38:59.914Z,41.97
2023-02-15T16:41:30.107Z,42.16
2023-02-15T16:44:01.083Z,42.38
2023-02-15T16:46:57.749Z,42.02
2023-02-15T16:49:28.821Z,42.00
2023-02-15T16:52:02.428Z,41.79
2023-02-15T16:54:32.557Z,42.40
2023-02-15T16:57:00.664Z,41.93
2023-02-15T16:59:36.335Z,42.76
2023-02-15T17:02:20.366Z,42.55
2023-02-15T17:05:12.969Z,43.38
2023-02-15T17:07:42.534Z,42.86
2023-02-15T17:10:30.083Z,43.40
2023-02-15T17:13:03.776Z,42.97
2023-02-15T17:15:38.222Z,43.42
2023-02-15T17:18:12.256Z,42.68
2023-02-15T17:20:45.365Z,43.41
2023-02-15T17:23:43.318Z,44.21
2023-02-15T17:26:23.653Z,43.15
2023-02-15T17:28:54.212Z,43.98
2023-02-15T17:31:22.730Z,43.93
2023-02-15T17:33:50.581Z,43.80
2023-02-15T17:36:23.080Z,43.91
2023-02-15T17:38:59.059Z,44.02
2023-02-15T17:41:28.758Z,44.76
2023-02-15T17:43:56.293Z,44.71
2023-02-15T17:46:24.734Z,44.65
2023-02-15T17:48:55.226Z,44.80
2023-02-15T17:51:23.812Z,44.82
2023-02-15T17:54:10.133Z,44.52
2023-02-15T17:56:39.251Z,45.44
2023-02-15T17:59:11.466Z,45.06
2023-02-15T18:02:04.581Z,45.55
2023-02-15T18:04:51.693Z,45.76
2023-02-15T18:07:39.032Z,45.59
2023-02-15T18:10:36.828Z,46.12
2023-02-15T18:13:04.625Z,46.00
2023-02-15T18:15:32.498Z,45.86
2023-02-15T18:18:00.092Z,45.64
2023-02-15T18:20:34.430Z,45.75
2023-02-15T18:23:02.390Z,46.27
2023-02-15T18:25:29.976Z,46.30
2023-02-15T18:27:57.440Z,46.26
2023-02-15T18:30:28.383Z,46.45
2023-02-15T18:32:57.809Z,46.34
2023-02-15T18:35:29.003Z,46.29
2023-02-15T18:37:57.016Z,46.54
2023-02-15T18:40:27.748Z,46.90
2023-02-15T18:42:57.381Z,47.61
2023-02-15T18:45:33.280Z,47.22
2023-02-15T18:48:01.239Z,47.16
2023-02-15T18:50:33.410Z,47.55
2023-02-15T18:53:06.493Z,47.40
2023-02-15T18:55:35.888Z,48.73
2023-02-15T18:58:03.592Z,48.79
2023-02-15T19:00:34.843Z,48.72
2023-02-15T19:03:05.369Z,48.67
2023-02-15T19:05:34.161Z,49.09
2023-02-15T19:08:05.683Z,49.21
2023-02-15T19:10:37.201Z,50.46
2023-02-15T19:13:04.787Z,49.68
2023-02-15T19:15:32.149Z,49.32
2023-02-15T19:17:59.798Z,49.83
2023-02-15T19:20:44.210Z,50.08
2023-02-15T19:23:25.178Z,50.76
2023-02-15T19:25:54.496Z,50.77
2023-02-15T19:28:30.075Z,50.96
2023-02-15T19:31:00.828Z,51.43
2023-02-15T19:33:28.210Z,50.90
2023-02-15T19:35:57.758Z,51.54
2023-02-15T19:38:31.319Z,52.21
2023-02-15T19:41:05.910Z,52.28
2023-02-15T19:43:35.583Z,51.97
2023-02-15T19:46:03.203Z,52.25
2023-02-15T19:48:31.484Z,53.18
2023-02-15T19:50:58.909Z,52.80
2023-02-15T19:53:28.375Z,53.14
2023-02-15T19:55:56.262Z,53.11
2023-02-15T19:58:23.953Z,53.68
2023-02-15T20:00:52.423Z,53.53
2023-02-15T20:03:25.439Z,53.17
2023-02-15T20:05:53.671Z,54.07
2023-02-15T20:08:23.618Z,54.03
2023-02-15T20:10:52.821Z,54.13
2023-02-15T20:13:24.165Z,55.01
2023-02-15T20:15:52.639Z,54.66
2023-02-15T20:18:23.487Z,55.26
2023-02-15T20:20:53.740Z,55.25
2023-02-15T20:23:31.418Z,54.74
2023-02-15T20:26:01.251Z,55.41
2023-02-15T20:28:32.175Z,55.06
2023-02-15T20:31:00.220Z,55.42
2023-02-15T20:33:27.929Z,55.06
2023-02-15T20:35:55.254Z,55.15
2023-02-15T20:38:25.857Z,55.31
2023-02-15T20:41:12.903Z,55.37
2023-02-15T20:43:42.244Z,55.29
2023-02-15T20:46:09.536Z,55.62
2023-02-15T20:48:37.201Z,55.83
2023-02-15T20:51:05.332Z,55.61
2023-02-15T20:53:32.647Z,55.56
2023-02-15T20:56:00.151Z,55.51
2023-02-15T20:58:30.700Z,55.81
2023-02-15T21:00:59.464Z,55.92
2023-02-15T21:03:31.335Z,56.44
2023-02-15T21:05:59.768Z,56.49
2023-02-15T21:08:27.796Z,56.79
2023-02-15T21:10:55.520Z,56.78
2023-02-15T21:13:27.543Z,56.43
2023-02-15T21:15:56.071Z,56.81
2023-02-15T21:18:33.560Z,57.19
2023-02-15T21:21:04.065Z,57.44
2023-02-15T21:23:38.395Z,57.05
2023-02-15T21:26:07.819Z,57.16
2023-02-15T21:28:35.180Z,56.84
2023-02-15T21:31:03.074Z,57.07
2023-02-15T21:33:30.623Z,57.17
2023-02-15T21:35:59.281Z,57.21
2023-02-15T21:38:32.495Z,57.26
2023-02-15T21:41:19.657Z,57.74
2023-02-15T21:44:05.553Z,57.15
2023-02-15T21:46:51.807Z,57.94
2023-02-15T21:49:23.231Z,58.32
2023-02-15T21:52:09.723Z,57.76
2023-02-15T21:54:37.027Z,57.73
2023-02-15T21:57:04.561Z,58.32
2023-02-15T21:59:33.039Z,58.10
2023-02-15T22:02:00.361Z,58.71
2023-02-15T22:04:30.499Z,58.31
2023-02-15T22:06:58.140Z,58.11
2023-02-15T22:09:27.316Z,58.31
2023-02-15T22:11:55.509Z,58.04
2023-02-15T22:14:43.163Z,58.39
2023-02-15T22:17:19.363Z,58.62
2023-02-15T22:19:48.172Z,58.58
2023-02-15T22:22:16.338Z,58.93
2023-02-15T22:24:44.656Z,58.72
2023-02-15T22:27:23.317Z,58.50
2023-02-15T22:29:50.831Z,59.42
2023-02-15T22:32:21.493Z,59.60
2023-02-15T22:34:52.269Z,59.31
2023-02-15T22:37:19.727Z,59.92
2023-02-15T22:39:47.174Z,59.82
2023-02-15T22:42:28.031Z,59.86
2023-02-15T22:44:57.419Z,60.08
2023-02-15T22:47:27.820Z,59.81
2023-02-15T22:49:55.990Z,60.64
2023-02-15T22:52:23.395Z,60.27
2023-02-15T22:54:50.618Z,60.71
2023-02-15T22:57:36.110Z,60.71
2023-02-15T23:00:06.499Z,60.96
2023-02-15T23:02:33.638Z,60.96
2023-02-15T23:05:01.084Z,61.41
2023-02-15T23:07:28.689Z,61.40
2023-02-15T23:09:55.796Z,60.90
2023-02-15T23:12:29.096Z,61.53
2023-02-15T23:14:57.565Z,61.72
2023-02-15T23:17:24.701Z,62.02
2023-02-15T23:19:52.136Z,61.43
2023-02-15T23:22:20.778Z,62.36
2023-02-15T23:24:52.961Z,61.96
2023-02-15T23:27:38.960Z,61.77
2023-02-15T23:30:12.696Z,62.51
2023-02-15T23:32:40.839Z,62.70
2023-02-15T23:35:19.175Z,62.92
2023-02-15T23:37:46.705Z,62.54
2023-02-15T23:40:37.904Z,63.02
2023-02-15T23:43:06.989Z,62.71
2023-02-15T23:45:38.328Z,63.23
2023-02-15T23:48:29.910Z,63.43
2023-02-15T23:50:58.146Z,63.16
2023-02-15T23:53:25.824Z,63.58
2023-02-15T23:55:53.674Z,63.53
2023-02-15T23:58:26.263Z,63.69
